x

Prince Edward Pt (45135) Wave Buoy

6:00pm - Thu 28th Jul 2016 All times are CDT. -5 hours from GMT.

  • Sig Wave height 0.7ft
  • Peak Period 3s
  • Wind
    2mph, 4mph gusts
  • Sea Temp 76°f
  • Air Temp 76°f
  • Sea Pressure 1011.7mb
  • Prince Edward Pt
  • Prince Edward Pt

More Historic Weather Station data

Upgrade to MSW Pro to gain access to the past 30 days of data for over 8000 Wavebouys and Weather Stations around the globe.

Join Pro

Comparision Forecast

View Surf forecast
   
Thu 07/28 6:00pm 0.7ft 3s 2 4 mph 1011.7mb 76f 76f
5:00pm 1ft 3s 4 9 mph 1011.6mb 76f 76f
4:00pm 0.7ft 3s 7
mph
1011.4mb 76f 76f
3:00pm 0.7ft 3s 9
mph
1011.6mb 76f 75f
2:00pm 0.7ft 3s 7 9 mph 1011.8mb 76f 74f
1:00pm 0.7ft 4s 4 7 mph 1012.3mb 76f 74f
12:00pm 0.7ft 4s 4 7 mph 1012.6mb 76f 74f
11:00am 0.7ft 4s 7
mph
1012.7mb 76f 74f
10:00am 0.7ft 4s 4 7 mph 1012.8mb 75f 73f
9:00am 0.7ft 3s 4
mph
1013mb 75f 72f
8:00am 0.7ft 4s 7 9 mph 1013.2mb 74f 73f
7:00am 0.7ft 4s 4
mph
1012.7mb 74f 73f
6:00am 1ft 4s 7 9 mph 1012.6mb 74f 73f
5:00am 1ft 3s 7 9 mph 1012.2mb 74f 73f
4:00am 1ft 3s 9 11 mph 1011.9mb 74f 74f
3:00am 1ft 3s 9
mph
1011.6mb 74f 74f
2:00am 1ft 3s 11
mph
1011.7mb 75f 75f
1:00am 1ft 3s 11
mph
1011.8mb 75f 74f
12:00am 1.3ft 3s 13 16 mph 1012.2mb 75f 75f
Wed 07/27 11:00pm 1ft 3s 13 18 mph 1012.1mb 75f 75f
10:00pm 0.7ft 3s 11 13 mph 1012mb 75f 76f
9:00pm 0.3ft 3s 11 16 mph 1012.1mb 75f 76f
8:00pm 0.3ft 3s 9 11 mph 1011.7mb 76f 77f
7:00pm 0.7ft 3s 4
mph
1011.7mb 76f 76f
6:00pm 0.7ft 3s 4
mph
1012mb 76f 77f
5:00pm 1ft 2s 7 9 mph 1011.8mb 76f 77f
4:00pm 0.7ft 4s 9 11 mph 1011.7mb 76f 76f
3:00pm 1ft 4s 9 11 mph 1012.3mb 76f 76f
2:00pm 1ft 4s 7 9 mph 1013.2mb 76f 75f
1:00pm 1ft 3s 9
mph
1013.6mb 75f 75f
12:00pm 1ft 4s 9 11 mph 1014mb 75f 73f
11:00am 1.3ft 3s 9
mph
1014.3mb 74f 73f
10:00am 1.3ft 3s 9 11 mph 1014.6mb 74f 72f
9:00am 1ft 3s 11 13 mph 1014.6mb 74f 72f
8:00am 1ft 3s 11 13 mph 1014.9mb 74f 72f
7:00am 1ft 3s 11 13 mph 1014.6mb 74f 72f
6:00am 1ft 3s 11
mph
1013.9mb 74f 72f
5:00am 1ft 3s 11 13 mph 1014.1mb 74f 72f
4:00am 1ft 4s 9 11 mph 1013.8mb 74f 73f
3:00am 1ft 4s 9 11 mph 1013.6mb 74f 73f
2:00am 1.3ft 4s 11 13 mph 1013.7mb 74f 74f
1:00am 1.3ft 4s 13 16 mph 1013.7mb 74f 74f
12:00am 1.3ft 4s 13 18 mph 1013.8mb 74f 74f
Tue 07/26 11:00pm 1.6ft 4s 13 16 mph 1013.7mb 74f 74f
10:00pm 1.6ft 4s 13 16 mph 1013.4mb 74f 74f
9:00pm 2ft 4s 13
mph
1013.4mb 74f 74f
8:00pm 2.5ft 5s 16 18 mph 1013.1mb 74f 75f
7:00pm 2.5ft 5s 18 20 mph 1013.1mb 74f 75f
6:00pm 3ft 5s 16 18 mph 1013mb 74f 74f
5:00pm 3ft 5s 18 20 mph 1013.1mb 74f 75f
4:00pm 3.5ft 5s 16 18 mph 1013.2mb 74f 74f
3:00pm 3.5ft 5s 16 20 mph 1013.6mb 74f 73f
2:00pm 3.5ft 5s 18 22 mph 1013.8mb 74f 73f
1:00pm 3.5ft 5s 20 25 mph 1014mb 74f 72f
12:00pm 3ft 5s 20 22 mph 1014.1mb 74f 72f
11:00am 2.5ft 5s 18 22 mph 1014.1mb 74f 72f
10:00am 2.5ft 4s 16 18 mph 1013.9mb 74f 71f
9:00am 2.5ft 5s 16 18 mph 1013.7mb 73f 70f
8:00am 2ft 5s 13 18 mph 1013.4mb 73f 70f
7:00am 2.5ft 5s 13 18 mph 1013.1mb 73f 70f
6:00am 2.5ft 4s 16 18 mph 1012.7mb 73f 70f
5:00am 2.5ft 4s 18 20 mph 1011.9mb 73f 71f
4:00am 2ft 4s 18 22 mph 1011.1mb 73f 72f
3:00am 1.6ft 3s 18 22 mph 1010.6mb 74f 73f
2:00am 1.6ft 3s 13 18 mph 1010.7mb 74f 74f
1:00am 1.3ft 4s 16 18 mph 1010.7mb 74f 74f
12:00am 1.3ft 4s 13 16 mph 1010.6mb 74f 75f
Mon 07/25 11:00pm 1.3ft 4s 11 13 mph 1010.4mb 74f 74f
10:00pm 1.3ft 4s 7
mph
1010.2mb 74f 74f
9:00pm 1.6ft 4s 11 13 mph 1009.8mb 74f 76f
8:00pm 1.6ft 4s 16 18 mph 1009mb 74f 76f
7:00pm 1.6ft 4s 16 18 mph 1008.4mb 74f 76f
6:00pm 1.6ft 4s 13 18 mph 1008.3mb 74f 75f
5:00pm 2ft 4s 13 18 mph 1008mb 74f 75f
4:00pm 2.5ft 5s 13 16 mph 1008.3mb 74f 75f
3:00pm 3ft 5s 16 18 mph 1008.8mb 74f 75f
2:00pm 2.5ft 5s 18 22 mph 1009mb 74f 75f
1:00pm 2.5ft 4s 13 16 mph 1009.3mb 74f 74f
12:00pm 2.5ft 4s 9 11 mph 1009.6mb 74f 73f
11:00am 2ft 4s 13 18 mph 1010.8mb 74f 73f
10:00am 1.6ft 3s 16 18 mph 1009.2mb 74f 73f
9:00am 1.3ft 3s 20 22 mph 1011.5mb 74f 73f
8:00am 1ft 3s 18 20 mph 1010.3mb 74f 72f
7:00am 1ft 3s 11 13 mph 1011.6mb 74f 73f
6:00am 1ft 3s 9 11 mph 1011.4mb 74f 72f
5:00am 1ft 3s 9 11 mph 1011.4mb 74f 74f
4:00am 1ft 3s 11 13 mph 1011.2mb 74f 74f
3:00am 1ft 3s 13 16 mph 1011.6mb 74f 75f
2:00am 0.7ft 2s 13 16 mph 1011.3mb 74f 75f
1:00am 0.3ft 2s 11 13 mph 1012.1mb 74f 75f